Time;durP1;ratioP1;P1;durP2;ratioP2;P2;SDS_P1;SDS_P2;PMS_P1;PMS_P2;Temp;Humidity;BMP_temperature;BMP_pressure;BME280_temperature;BME280_humidity;BME280_pressure;Samples;Min_cycle;Max_cycle;Signal;HPM_P1;HPM_P2
2021/12/29 00:00:19;;;;;;;26.58;17.05;;;4.80;99.90;;;;;;5060531;28;20399;-70
2021/12/29 00:02:46;;;;;;;28.60;16.75;;;4.80;99.90;;;;;;5059900;28;20200;-70
2021/12/29 00:05:16;;;;;;;26.20;16.52;;;4.80;99.90;;;;;;5058759;28;20584;-71
2021/12/29 00:07:44;;;;;;;27.35;17.27;;;4.80;99.90;;;;;;5059829;28;20229;-70
2021/12/29 00:10:15;;;;;;;27.85;16.58;;;4.80;99.90;;;;;;5059272;28;20197;-70
2021/12/29 00:12:47;;;;;;;28.50;18.10;;;4.90;99.90;;;;;;5059422;28;20684;-69
2021/12/29 00:15:16;;;;;;;25.25;15.95;;;4.80;99.90;;;;;;5059389;28;20791;-70
2021/12/29 00:17:45;;;;;;;27.38;17.42;;;4.90;99.90;;;;;;5059581;28;20473;-70
2021/12/29 00:20:17;;;;;;;28.45;15.73;;;4.90;99.90;;;;;;5060932;28;20673;-72
2021/12/29 00:22:45;;;;;;;28.42;17.05;;;4.90;99.90;;;;;;5061122;28;20711;-72
2021/12/29 00:25:14;;;;;;;27.02;17.25;;;4.90;99.90;;;;;;5058810;28;20674;-73
2021/12/29 00:27:41;;;;;;;29.00;17.02;;;4.90;99.90;;;;;;5059358;28;20255;-71
2021/12/29 00:30:12;;;;;;;25.17;16.35;;;4.90;99.90;;;;;;5059576;28;20216;-73
2021/12/29 00:32:40;;;;;;;27.55;18.00;;;4.90;99.90;;;;;;5059392;28;20223;-72
2021/12/29 00:35:14;;;;;;;30.70;18.30;;;4.90;99.90;;;;;;5059367;28;20207;-70
2021/12/29 00:37:43;;;;;;;33.53;18.58;;;4.90;99.90;;;;;;5059534;28;20284;-71
2021/12/29 00:40:12;;;;;;;30.45;17.73;;;4.90;99.90;;;;;;5060554;28;20215;-71
2021/12/29 00:42:41;;;;;;;27.45;17.85;;;4.90;99.90;;;;;;5059819;28;20200;-71
2021/12/29 00:45:10;;;;;;;26.42;17.63;;;4.90;99.90;;;;;;5063816;28;20196;-73
2021/12/29 00:47:38;;;;;;;25.75;17.23;;;4.90;99.90;;;;;;5060589;28;20270;-73
2021/12/29 00:50:09;;;;;;;30.80;18.35;;;4.90;99.90;;;;;;5061693;28;20204;-72
2021/12/29 00:52:37;;;;;;;24.92;16.52;;;4.90;99.90;;;;;;5062547;28;20219;-71
2021/12/29 00:55:07;;;;;;;30.90;17.80;;;4.90;99.90;;;;;;5061250;28;20201;-72
2021/12/29 00:57:35;;;;;;;28.17;16.95;;;4.90;99.90;;;;;;5061833;28;20201;-73
2021/12/29 01:00:05;;;;;;;30.63;19.00;;;4.90;99.90;;;;;;5068193;28;20204;-73
2021/12/29 01:02:33;;;;;;;27.45;16.25;;;4.90;99.90;;;;;;5075562;28;20197;-72
2021/12/29 01:05:01;;;;;;;28.50;17.17;;;4.90;99.90;;;;;;5075074;28;20197;-72
2021/12/29 01:07:29;;;;;;;28.10;17.55;;;4.90;99.90;;;;;;5064722;28;20221;-73
2021/12/29 01:09:57;;;;;;;32.03;19.63;;;4.90;99.90;;;;;;5059604;28;20211;-72
2021/12/29 01:12:26;;;;;;;24.90;16.38;;;4.90;99.90;;;;;;5059657;28;20571;-77
2021/12/29 01:14:55;;;;;;;31.10;18.55;;;4.80;99.90;;;;;;5062503;28;20671;-67
2021/12/29 01:17:24;;;;;;;26.65;16.90;;;4.80;99.90;;;;;;5066887;28;20289;-71
2021/12/29 01:19:54;;;;;;;28.83;17.23;;;4.80;99.90;;;;;;5065616;28;20224;-72
2021/12/29 01:22:23;;;;;;;23.20;14.35;;;4.80;99.90;;;;;;5065815;28;20410;-72
2021/12/29 01:24:51;;;;;;;30.25;18.20;;;4.80;99.90;;;;;;5065195;28;20213;-72
2021/12/29 01:27:19;;;;;;;31.77;18.42;;;4.80;99.90;;;;;;5065160;28;20225;-74
2021/12/29 01:29:48;;;;;;;29.05;16.88;;;4.80;99.90;;;;;;5065252;28;20445;-73
2021/12/29 01:32:17;;;;;;;27.95;17.63;;;4.80;99.90;;;;;;5065616;28;20209;-73
2021/12/29 01:34:44;;;;;;;31.38;17.40;;;4.80;99.90;;;;;;5065062;28;20201;-72
2021/12/29 01:37:12;;;;;;;26.90;16.00;;;4.80;99.90;;;;;;5063266;28;20226;-73
2021/12/29 01:39:40;;;;;;;29.00;18.08;;;4.80;99.90;;;;;;5059042;28;20228;-73
2021/12/29 01:42:08;;;;;;;25.77;16.25;;;4.80;99.90;;;;;;5058491;28;20663;-72
2021/12/29 01:44:36;;;;;;;38.05;21.10;;;4.70;99.90;;;;;;5058820;28;20567;-73
2021/12/29 01:47:06;;;;;;;34.72;19.20;;;4.70;99.90;;;;;;5058093;28;20217;-73
2021/12/29 01:49:34;;;;;;;40.67;21.17;;;4.60;99.90;;;;;;5057928;28;20200;-72
2021/12/29 01:52:09;;;;;;;44.60;20.95;;;4.40;99.90;;;;;;5057729;28;20200;-72
2021/12/29 01:54:37;;;;;;;39.30;20.42;;;4.40;99.90;;;;;;5057816;28;20208;-73
2021/12/29 01:57:07;;;;;;;40.25;19.40;;;4.40;99.90;;;;;;5057798;28;20224;-73
2021/12/29 01:59:35;;;;;;;37.03;20.80;;;4.40;99.90;;;;;;5057840;28;20215;-71
2021/12/29 02:02:05;;;;;;;33.65;18.77;;;4.40;99.90;;;;;;5058167;28;20718;-72
2021/12/29 02:04:33;;;;;;;29.52;17.27;;;4.30;99.90;;;;;;5057660;28;20626;-72
2021/12/29 02:07:04;;;;;;;41.75;20.23;;;4.40;99.90;;;;;;5057809;28;20237;-72
2021/12/29 02:09:32;;;;;;;29.92;17.70;;;4.40;99.90;;;;;;5058441;28;20220;-72
2021/12/29 02:12:00;;;;;;;32.22;18.27;;;4.40;99.90;;;;;;5057907;28;20211;-72
2021/12/29 02:14:28;;;;;;;41.50;22.02;;;4.50;99.90;;;;;;5057705;28;20201;-72
2021/12/29 02:16:55;;;;;;;37.55;20.67;;;4.50;99.90;;;;;;5058053;28;20248;-72
2021/12/29 02:19:26;;;;;;;42.67;19.20;;;4.50;99.90;;;;;;5057777;28;20633;-69
2021/12/29 02:22:02;;;;;;;38.30;20.70;;;4.50;99.90;;;;;;5058220;28;20201;-71
2021/12/29 02:24:38;;;;;;;36.35;19.67;;;4.50;99.90;;;;;;5057779;28;20222;-71
2021/12/29 02:27:07;;;;;;;40.00;20.92;;;4.50;99.90;;;;;;5058337;28;20567;-71
2021/12/29 02:29:35;;;;;;;38.28;18.73;;;4.50;99.90;;;;;;5058421;28;20739;-71
2021/12/29 02:32:04;;;;;;;35.92;18.75;;;4.50;99.90;;;;;;5059244;28;20232;-71
2021/12/29 02:34:33;;;;;;;32.20;18.20;;;4.50;99.90;;;;;;5057794;28;20361;-71
2021/12/29 02:37:03;;;;;;;41.65;21.33;;;4.60;99.90;;;;;;5058093;28;20229;-72
2021/12/29 02:39:36;;;;;;;36.10;18.83;;;4.60;99.90;;;;;;5058781;28;20254;-69
2021/12/29 02:42:06;;;;;;;39.60;21.13;;;4.60;99.90;;;;;;5057942;28;20711;-69
2021/12/29 02:44:39;;;;;;;34.55;18.20;;;4.60;99.90;;;;;;5058060;28;20770;-71
2021/12/29 02:47:08;;;;;;;37.80;21.80;;;4.60;99.90;;;;;;5057489;28;20221;-70
2021/12/29 02:49:36;;;;;;;38.40;20.52;;;4.60;99.90;;;;;;5057271;28;20231;-72
2021/12/29 02:52:06;;;;;;;35.00;19.50;;;4.60;99.90;;;;;;5057191;28;20577;-71
2021/12/29 02:54:34;;;;;;;38.47;20.17;;;4.60;99.90;;;;;;5057068;28;20221;-72
2021/12/29 02:57:02;;;;;;;39.83;20.70;;;4.60;99.90;;;;;;5057494;28;20622;-72
2021/12/29 02:59:29;;;;;;;44.10;22.33;;;4.60;99.90;;;;;;5057737;28;20193;-71
2021/12/29 03:01:57;;;;;;;42.72;20.70;;;4.60;99.90;;;;;;5057882;28;20223;-71
2021/12/29 03:04:25;;;;;;;45.10;22.50;;;4.60;99.90;;;;;;5058548;28;20197;-71
2021/12/29 03:06:53;;;;;;;42.97;22.52;;;4.60;99.90;;;;;;5061817;28;20345;-71
2021/12/29 03:09:22;;;;;;;45.42;23.17;;;4.60;99.90;;;;;;5061248;28;20750;-71
2021/12/29 03:11:51;;;;;;;39.88;22.67;;;4.50;99.90;;;;;;5061190;28;20483;-71
2021/12/29 03:14:20;;;;;;;41.15;21.88;;;4.50;99.90;;;;;;5061360;28;20201;-71
2021/12/29 03:16:48;;;;;;;51.13;23.88;;;4.50;99.90;;;;;;5061439;28;20221;-71
2021/12/29 03:19:16;;;;;;;47.25;22.45;;;4.40;99.90;;;;;;5060993;28;20201;-71
2021/12/29 03:21:45;;;;;;;47.20;23.38;;;4.40;99.90;;;;;;5061935;28;20197;-71
2021/12/29 03:24:14;;;;;;;44.25;21.77;;;4.40;99.90;;;;;;5061488;28;20319;-71
2021/12/29 03:26:43;;;;;;;44.75;21.88;;;4.50;99.90;;;;;;5062105;28;20220;-71
2021/12/29 03:29:11;;;;;;;44.35;23.00;;;4.50;99.90;;;;;;5063482;28;20221;-71
2021/12/29 03:31:42;;;;;;;49.25;24.73;;;4.50;99.90;;;;;;5068449;28;20288;-70
2021/12/29 03:34:09;;;;;;;46.53;22.52;;;4.50;99.90;;;;;;5086094;28;20198;-70
2021/12/29 03:36:37;;;;;;;50.03;24.15;;;4.40;99.90;;;;;;5087375;28;20221;-72
2021/12/29 03:39:06;;;;;;;47.22;23.77;;;4.40;99.90;;;;;;5069792;28;20281;-71
2021/12/29 03:41:34;;;;;;;47.90;24.60;;;4.40;99.90;;;;;;5063583;28;20216;-69
2021/12/29 03:44:03;;;;;;;45.92;23.60;;;4.40;99.90;;;;;;5064194;28;20201;-69
2021/12/29 03:46:33;;;;;;;48.85;24.20;;;4.30;99.90;;;;;;5064709;28;20515;-69
2021/12/29 03:49:01;;;;;;;46.25;23.33;;;4.30;99.90;;;;;;5064938;28;20768;-71
2021/12/29 03:51:29;;;;;;;53.35;23.92;;;4.20;99.90;;;;;;5065026;28;20209;-72
2021/12/29 03:53:57;;;;;;;47.60;24.60;;;4.20;99.90;;;;;;5061985;28;20219;-72
2021/12/29 03:56:25;;;;;;;54.20;23.80;;;4.10;99.90;;;;;;5061686;28;20584;-72
2021/12/29 03:58:53;;;;;;;51.00;25.17;;;4.10;99.90;;;;;;5061779;28;20197;-73
2021/12/29 04:01:25;;;;;;;40.90;23.48;;;4.10;99.90;;;;;;5061430;28;20609;-73
2021/12/29 04:03:54;;;;;;;47.60;23.50;;;4.10;99.90;;;;;;5061590;28;20205;-73
2021/12/29 04:06:22;;;;;;;50.35;24.13;;;4.00;99.90;;;;;;5060989;28;20224;-71
2021/12/29 04:08:51;;;;;;;53.53;25.55;;;4.00;99.90;;;;;;5061521;28;20221;-70
2021/12/29 04:11:20;;;;;;;50.90;23.48;;;4.10;99.90;;;;;;5061749;28;20207;-71
2021/12/29 04:13:50;;;;;;;46.70;25.63;;;4.10;99.90;;;;;;5061852;28;20201;-69
2021/12/29 04:16:18;;;;;;;46.45;22.08;;;4.20;99.90;;;;;;5061171;28;20232;-72
2021/12/29 04:19:06;;;;;;;42.83;22.70;;;4.20;99.90;;;;;;5061742;28;20197;-73
2021/12/29 04:21:36;;;;;;;44.63;22.77;;;4.30;99.90;;;;;;5060713;28;20215;-71
2021/12/29 04:24:05;;;;;;;43.65;22.10;;;4.30;99.90;;;;;;5060416;28;20315;-71
2021/12/29 04:26:36;;;;;;;46.63;22.67;;;4.40;99.90;;;;;;5061451;28;20539;-72
2021/12/29 04:29:04;;;;;;;41.10;21.85;;;4.40;99.90;;;;;;5060994;28;20221;-70
2021/12/29 04:31:33;;;;;;;53.88;24.30;;;4.40;99.90;;;;;;5060934;28;20197;-71
2021/12/29 04:34:03;;;;;;;45.50;23.92;;;4.50;99.90;;;;;;5060013;28;20292;-71
2021/12/29 04:36:31;;;;;;;46.10;23.17;;;4.50;99.90;;;;;;5060722;28;20225;-72
2021/12/29 04:39:01;;;;;;;45.60;21.60;;;4.50;99.90;;;;;;5060775;28;20208;-72
2021/12/29 04:41:29;;;;;;;47.58;25.00;;;4.50;99.90;;;;;;5061365;28;20292;-72
2021/12/29 04:43:57;;;;;;;45.58;23.30;;;4.50;99.90;;;;;;5060235;28;20207;-72
2021/12/29 04:46:35;;;;;;;42.97;24.20;;;4.50;99.90;;;;;;5060199;28;20312;-73
2021/12/29 04:49:05;;;;;;;40.42;22.23;;;4.50;99.90;;;;;;5060536;28;20205;-73
2021/12/29 04:51:36;;;;;;;47.92;22.70;;;4.50;99.90;;;;;;5060038;28;20201;-71
2021/12/29 04:54:07;;;;;;;43.97;23.42;;;4.50;99.90;;;;;;5059362;28;20197;-73
2021/12/29 04:56:35;;;;;;;42.20;21.85;;;4.50;99.90;;;;;;5059513;28;20618;-72
2021/12/29 04:59:03;;;;;;;48.78;23.40;;;4.50;99.90;;;;;;5059241;28;20197;-72
2021/12/29 05:01:32;;;;;;;45.70;24.02;;;4.50;99.90;;;;;;5058995;28;20205;-72
2021/12/29 05:04:00;;;;;;;42.95;23.73;;;4.50;99.90;;;;;;5058807;28;20215;-72
2021/12/29 05:09:15;;;;;;;46.10;23.08;;;4.50;99.90;;;;;;5058967;28;20719;-72
2021/12/29 05:11:44;;;;;;;45.53;23.98;;;4.50;99.90;;;;;;5058602;28;20201;-72
2021/12/29 05:14:12;;;;;;;52.30;24.73;;;4.40;99.90;;;;;;5058260;28;20197;-72
2021/12/29 05:16:40;;;;;;;47.35;23.88;;;4.30;99.90;;;;;;5058187;28;20629;-73
2021/12/29 05:19:08;;;;;;;47.28;24.17;;;4.30;99.90;;;;;;5058667;28;20379;-73
2021/12/29 05:21:37;;;;;;;47.80;24.08;;;4.30;99.90;;;;;;5058595;28;20219;-72
2021/12/29 05:24:05;;;;;;;55.50;27.40;;;4.30;99.90;;;;;;5057661;28;20296;-71
2021/12/29 05:26:33;;;;;;;47.47;23.50;;;4.30;99.90;;;;;;5058111;28;20475;-71
2021/12/29 05:29:01;;;;;;;47.45;23.70;;;4.30;99.90;;;;;;5058857;28;20717;-70
2021/12/29 05:31:30;;;;;;;51.97;27.00;;;4.30;99.90;;;;;;5058552;28;20237;-72
2021/12/29 05:33:58;;;;;;;44.38;23.45;;;4.30;99.90;;;;;;5058947;28;20283;-71
2021/12/29 05:36:26;;;;;;;51.55;24.95;;;4.30;99.90;;;;;;5058467;28;20243;-71
2021/12/29 05:38:57;;;;;;;44.92;24.90;;;4.30;99.90;;;;;;5058453;28;20201;-69
2021/12/29 05:41:25;;;;;;;49.95;25.88;;;4.30;99.90;;;;;;5057851;28;20201;-68
2021/12/29 05:43:53;;;;;;;44.90;22.80;;;4.30;99.90;;;;;;5057776;28;20406;-71
2021/12/29 05:46:20;;;;;;;48.60;25.20;;;4.40;99.90;;;;;;5057833;28;20232;-72
2021/12/29 05:48:48;;;;;;;42.80;22.80;;;4.40;99.90;;;;;;5058081;28;20236;-73
2021/12/29 05:51:16;;;;;;;45.20;22.30;;;4.40;99.90;;;;;;5057547;28;20225;-71
2021/12/29 05:53:44;;;;;;;40.75;22.65;;;4.50;99.90;;;;;;5057763;28;20201;-69
2021/12/29 05:56:13;;;;;;;43.50;22.55;;;4.50;99.90;;;;;;5058270;28;20224;-69
2021/12/29 05:58:41;;;;;;;46.17;23.30;;;4.50;99.90;;;;;;5058548;28;20200;-69
2021/12/29 06:01:10;;;;;;;44.80;22.65;;;4.50;99.90;;;;;;5058360;28;20201;-68
2021/12/29 06:03:38;;;;;;;49.33;23.83;;;4.50;99.90;;;;;;5058121;28;20288;-69
2021/12/29 06:06:06;;;;;;;43.17;21.95;;;4.60;99.90;;;;;;5071744;28;20232;-69
2021/12/29 06:08:34;;;;;;;35.78;21.05;;;4.50;99.90;;;;;;5069380;28;20453;-69
2021/12/29 06:11:02;;;;;;;42.75;24.25;;;4.50;99.90;;;;;;5065776;28;20838;-69
2021/12/29 06:13:31;;;;;;;42.72;22.92;;;4.60;99.90;;;;;;5063723;28;20215;-68
2021/12/29 06:15:58;;;;;;;43.50;21.75;;;4.50;99.90;;;;;;5060021;28;20387;-67
2021/12/29 06:18:27;;;;;;;47.50;23.95;;;4.60;99.90;;;;;;5059532;28;20224;-69
2021/12/29 06:20:55;;;;;;;38.33;20.70;;;4.60;99.90;;;;;;5060098;28;20280;-69
2021/12/29 06:23:23;;;;;;;46.05;22.88;;;4.60;99.90;;;;;;5058966;28;20936;-67
2021/12/29 06:25:51;;;;;;;42.92;22.50;;;4.60;99.90;;;;;;5059986;28;20217;-70
2021/12/29 06:28:19;;;;;;;44.35;25.40;;;4.60;99.90;;;;;;5058849;28;20205;-69
2021/12/29 06:30:48;;;;;;;47.55;23.95;;;4.60;99.90;;;;;;5058387;28;20225;-67
2021/12/29 06:33:16;;;;;;;43.00;22.00;;;4.60;99.90;;;;;;5057492;28;20236;-71
2021/12/29 06:35:44;;;;;;;41.97;21.55;;;4.60;99.90;;;;;;5058622;28;20221;-69
2021/12/29 06:38:12;;;;;;;44.85;23.67;;;4.60;99.90;;;;;;5058257;28;20211;-74
2021/12/29 06:40:40;;;;;;;41.58;23.45;;;4.60;99.90;;;;;;5060746;28;20200;-71
2021/12/29 06:43:08;;;;;;;48.08;25.23;;;4.60;99.90;;;;;;5061290;28;20208;-71
2021/12/29 06:45:36;;;;;;;43.30;23.08;;;4.60;99.90;;;;;;5061874;28;20407;-71
2021/12/29 06:48:06;;;;;;;41.53;24.50;;;4.60;99.90;;;;;;5061559;28;20269;-67
2021/12/29 06:50:34;;;;;;;36.28;20.95;;;4.50;99.90;;;;;;5061567;28;20217;-72
2021/12/29 06:53:02;;;;;;;43.22;24.83;;;4.50;99.90;;;;;;5060711;28;20566;-71
2021/12/29 06:55:30;;;;;;;48.03;24.63;;;4.50;99.90;;;;;;5083331;28;20212;-70
2021/12/29 06:57:58;;;;;;;44.75;21.85;;;4.50;99.90;;;;;;5081947;28;20312;-72
2021/12/29 07:00:26;;;;;;;40.20;21.95;;;4.50;99.90;;;;;;5081606;28;20499;-71
2021/12/29 07:02:53;;;;;;;47.20;23.17;;;4.50;99.90;;;;;;5081526;28;20215;-69
2021/12/29 07:05:23;;;;;;;49.38;25.60;;;4.50;99.90;;;;;;5080792;28;20728;-71
2021/12/29 07:07:52;;;;;;;43.33;22.42;;;4.50;99.90;;;;;;5081254;28;20211;-70
2021/12/29 07:10:20;;;;;;;47.95;24.83;;;4.50;99.90;;;;;;5080457;28;20309;-71
2021/12/29 07:12:48;;;;;;;46.88;23.77;;;4.50;99.90;;;;;;5081526;28;20211;-71
2021/12/29 07:15:16;;;;;;;45.53;23.20;;;4.50;99.90;;;;;;5080576;28;20273;-74
2021/12/29 07:17:44;;;;;;;45.30;23.65;;;4.50;99.90;;;;;;5081022;28;20200;-73
2021/12/29 07:20:12;;;;;;;41.00;23.90;;;4.60;99.90;;;;;;5080812;28;20698;-73
2021/12/29 07:22:42;;;;;;;41.08;21.25;;;4.60;99.90;;;;;;5080734;28;20685;-73
2021/12/29 07:25:10;;;;;;;48.60;22.85;;;4.60;99.90;;;;;;5080334;28;20208;-73
2021/12/29 07:27:38;;;;;;;49.15;24.15;;;4.60;99.90;;;;;;5080757;28;20685;-73
2021/12/29 07:30:07;;;;;;;48.13;24.38;;;4.60;99.90;;;;;;5080996;28;20222;-71
2021/12/29 07:32:35;;;;;;;42.55;22.60;;;4.60;99.90;;;;;;5080711;28;20203;-73
2021/12/29 07:35:04;;;;;;;49.13;24.13;;;4.60;99.90;;;;;;5080554;28;20580;-73
2021/12/29 07:37:32;;;;;;;42.47;23.02;;;4.60;99.90;;;;;;5080561;28;20659;-73
2021/12/29 07:40:06;;;;;;;45.05;23.45;;;4.60;99.90;;;;;;5081549;28;20207;-73
2021/12/29 07:42:34;;;;;;;43.35;24.90;;;4.60;99.90;;;;;;5081855;28;20200;-74
2021/12/29 07:45:04;;;;;;;47.10;25.58;;;4.60;99.90;;;;;;5081207;28;20204;-74
2021/12/29 07:47:32;;;;;;;49.80;27.48;;;4.60;99.90;;;;;;5081358;28;20204;-65
2021/12/29 07:49:59;;;;;;;46.92;23.88;;;4.60;99.90;;;;;;5081223;28;20436;-65
2021/12/29 07:52:48;;;;;;;45.67;24.13;;;4.50;99.90;;;;;;5081114;28;20197;-65
2021/12/29 07:55:18;;;;;;;43.22;23.33;;;4.50;99.90;;;;;;5080976;28;20393;-65
2021/12/29 07:57:49;;;;;;;52.53;25.30;;;4.50;99.90;;;;;;5080288;28;20216;-65
2021/12/29 08:00:18;;;;;;;47.28;25.50;;;4.50;99.90;;;;;;5079272;28;20241;-65
2021/12/29 08:02:47;;;;;;;43.88;24.77;;;4.50;99.90;;;;;;5079310;28;20203;-65
2021/12/29 08:05:15;;;;;;;44.53;24.45;;;4.50;99.90;;;;;;5079379;28;20220;-65
2021/12/29 08:07:46;;;;;;;44.72;24.40;;;4.50;99.90;;;;;;5080148;28;20683;-66
2021/12/29 08:10:14;;;;;;;52.85;25.48;;;4.50;99.90;;;;;;5079507;28;20201;-65
2021/12/29 08:12:43;;;;;;;49.55;23.70;;;4.50;99.90;;;;;;5079441;28;20377;-65
2021/12/29 08:15:12;;;;;;;49.13;24.60;;;4.40;99.90;;;;;;5079589;28;20362;-65
2021/12/29 08:17:40;;;;;;;49.85;26.98;;;4.40;99.90;;;;;;5079730;28;20210;-66
2021/12/29 08:20:10;;;;;;;48.65;25.73;;;4.40;99.90;;;;;;5079999;28;20196;-65
2021/12/29 08:22:39;;;;;;;44.92;23.60;;;4.50;99.90;;;;;;5079770;28;20383;-66
2021/12/29 08:25:08;;;;;;;48.65;25.08;;;4.50;99.90;;;;;;5079610;28;20607;-65
2021/12/29 08:27:36;;;;;;;43.42;24.50;;;4.60;99.90;;;;;;5080076;28;20200;-67
2021/12/29 08:30:07;;;;;;;43.90;23.70;;;4.60;99.90;;;;;;5081909;28;20596;-66
2021/12/29 08:32:35;;;;;;;49.17;24.55;;;4.60;99.90;;;;;;5080910;28;20289;-66
2021/12/29 08:35:03;;;;;;;48.78;26.00;;;4.60;99.90;;;;;;5081068;28;20208;-65
2021/12/29 08:37:31;;;;;;;47.60;25.10;;;4.60;99.90;;;;;;5096098;28;20251;-64
2021/12/29 08:39:59;;;;;;;48.30;23.27;;;4.50;99.90;;;;;;5101723;28;20265;-66
2021/12/29 08:42:26;;;;;;;44.08;24.15;;;4.50;99.90;;;;;;5080568;28;20192;-66
2021/12/29 08:44:54;;;;;;;48.05;25.40;;;4.50;99.90;;;;;;5079713;28;20683;-65
2021/12/29 08:47:23;;;;;;;49.35;25.40;;;4.50;99.90;;;;;;5079431;28;20903;-66
2021/12/29 08:49:51;;;;;;;46.47;25.27;;;4.50;99.90;;;;;;5081111;28;20279;-67
2021/12/29 08:52:19;;;;;;;45.58;24.02;;;4.50;99.90;;;;;;5082847;28;20228;-64
2021/12/29 08:54:47;;;;;;;46.90;22.65;;;4.50;99.90;;;;;;5080933;28;20215;-65
2021/12/29 08:57:15;;;;;;;42.85;25.92;;;4.50;99.90;;;;;;5081741;28;20224;-67
2021/12/29 08:59:43;;;;;;;46.97;24.05;;;4.60;99.90;;;;;;5080678;28;20730;-64
2021/12/29 09:02:12;;;;;;;46.00;24.02;;;4.60;99.90;;;;;;5079926;28;20197;-64
2021/12/29 09:04:41;;;;;;;47.67;26.88;;;4.70;99.90;;;;;;5080558;28;20306;-66
2021/12/29 09:07:09;;;;;;;43.03;24.55;;;4.70;99.90;;;;;;5081198;28;20224;-66
2021/12/29 09:09:37;;;;;;;48.42;25.48;;;4.70;99.90;;;;;;5080853;28;20467;-66
2021/12/29 09:12:05;;;;;;;48.90;25.52;;;4.70;99.90;;;;;;5089484;28;20224;-65
2021/12/29 09:14:33;;;;;;;41.38;23.27;;;4.70;99.90;;;;;;5081292;28;20205;-66
2021/12/29 09:17:01;;;;;;;44.70;24.10;;;4.70;99.90;;;;;;5079532;28;20216;-66
2021/12/29 09:19:33;;;;;;;45.63;23.88;;;4.80;99.90;;;;;;5079981;28;20201;-67
2021/12/29 09:22:02;;;;;;;53.03;24.88;;;4.90;99.90;;;;;;5080200;28;20353;-66
2021/12/29 09:24:30;;;;;;;48.88;25.20;;;4.90;99.90;;;;;;5079784;28;20208;-66
2021/12/29 09:26:58;;;;;;;49.30;24.30;;;5.00;99.90;;;;;;5079832;28;20255;-67
2021/12/29 09:29:26;;;;;;;59.25;29.05;;;5.10;99.90;;;;;;5039311;28;20507;-66
2021/12/29 09:31:54;;;;;;;47.55;25.75;;;5.20;99.90;;;;;;5039203;28;20233;-69
2021/12/29 09:34:22;;;;;;;46.10;25.60;;;5.20;99.90;;;;;;5039132;28;20563;-67
2021/12/29 09:36:50;;;;;;;51.03;25.58;;;5.20;99.90;;;;;;5039353;28;20704;-66
2021/12/29 09:39:19;;;;;;;48.22;23.80;;;5.20;99.90;;;;;;5040698;28;20690;-66
2021/12/29 09:41:48;;;;;;;46.35;26.38;;;5.20;99.90;;;;;;5056571;28;20197;-67
2021/12/29 09:44:16;;;;;;;51.42;27.38;;;5.30;99.90;;;;;;5059341;28;20215;-67
2021/12/29 09:46:48;;;;;;;46.30;24.20;;;5.40;99.90;;;;;;5059020;28;20578;-67
2021/12/29 09:49:16;;;;;;;55.33;26.88;;;5.40;99.90;;;;;;5058671;28;20216;-66
2021/12/29 09:51:45;;;;;;;52.03;27.17;;;5.40;99.90;;;;;;5058594;28;20231;-65
2021/12/29 09:54:13;;;;;;;52.95;26.30;;;5.40;99.90;;;;;;5059733;28;20201;-67
2021/12/29 09:56:42;;;;;;;55.13;26.92;;;5.40;99.90;;;;;;5059158;28;20228;-71
2021/12/29 09:59:10;;;;;;;47.13;25.13;;;5.40;99.90;;;;;;5059124;28;20201;-67
2021/12/29 10:01:43;;;;;;;44.20;23.98;;;5.40;99.90;;;;;;5059403;28;20283;-69
2021/12/29 10:04:13;;;;;;;46.85;27.17;;;5.50;99.90;;;;;;5058641;28;20295;-68
2021/12/29 10:06:41;;;;;;;52.42;27.95;;;5.50;99.90;;;;;;5059528;28;20228;-65
2021/12/29 10:09:13;;;;;;;54.35;26.90;;;5.50;99.90;;;;;;5058586;28;20203;-67
2021/12/29 10:11:45;;;;;;;46.53;24.73;;;5.60;99.90;;;;;;5058764;28;20224;-67
2021/12/29 10:14:17;;;;;;;46.95;24.08;;;5.60;99.90;;;;;;5056135;28;20193;-67
2021/12/29 10:16:48;;;;;;;46.28;24.33;;;5.60;99.90;;;;;;5058247;28;20311;-67
2021/12/29 10:19:16;;;;;;;45.08;23.30;;;5.70;99.90;;;;;;5066839;28;20239;-67
2021/12/29 10:21:47;;;;;;;46.63;25.67;;;5.70;99.90;;;;;;5072333;28;20190;-66
2021/12/29 10:24:19;;;;;;;55.22;26.30;;;5.70;99.90;;;;;;5071410;28;20307;-67
2021/12/29 10:26:51;;;;;;;53.65;26.17;;;5.70;99.90;;;;;;5073740;28;20213;-68
2021/12/29 10:29:21;;;;;;;42.63;23.73;;;5.70;99.90;;;;;;5074645;28;20189;-68
2021/12/29 10:31:51;;;;;;;44.53;24.50;;;5.80;99.90;;;;;;5074004;28;20256;-67
2021/12/29 10:34:23;;;;;;;45.30;23.38;;;5.80;99.90;;;;;;5071867;28;20193;-65
2021/12/29 10:36:55;;;;;;;47.90;24.73;;;5.80;99.90;;;;;;5070573;28;20213;-68
2021/12/29 10:39:25;;;;;;;46.22;23.75;;;5.80;99.90;;;;;;5059051;28;20201;-66
2021/12/29 10:41:56;;;;;;;46.88;24.13;;;5.80;99.90;;;;;;5058539;28;20608;-67
2021/12/29 10:44:30;;;;;;;50.58;23.52;;;5.90;99.90;;;;;;5057716;28;20197;-67
2021/12/29 10:46:59;;;;;;;41.45;23.30;;;5.90;99.90;;;;;;5058896;28;20216;-66
2021/12/29 10:49:29;;;;;;;50.17;26.27;;;6.00;99.90;;;;;;5055110;28;20204;-66
2021/12/29 10:51:59;;;;;;;44.65;25.42;;;6.00;99.90;;;;;;5057391;28;20300;-67
2021/12/29 10:54:28;;;;;;;47.83;26.02;;;6.00;99.90;;;;;;5058414;28;20193;-67
2021/12/29 10:57:05;;;;;;;44.42;23.63;;;6.00;99.90;;;;;;5057444;28;20601;-67
2021/12/29 10:59:35;;;;;;;42.00;24.13;;;6.00;99.90;;;;;;5058634;28;20648;-67
2021/12/29 11:02:04;;;;;;;51.03;24.35;;;6.00;99.90;;;;;;5058160;28;20304;-66
2021/12/29 11:04:32;;;;;;;43.65;24.35;;;6.00;99.90;;;;;;5057386;28;20477;-66
2021/12/29 11:07:01;;;;;;;48.03;23.40;;;6.00;99.90;;;;;;5057793;28;20391;-66
2021/12/29 11:09:32;;;;;;;46.60;25.10;;;6.10;99.90;;;;;;4724327;28;10000783;-66
2021/12/29 11:12:09;;;;;;;49.45;26.98;;;6.10;99.90;;;;;;5066962;28;20201;-66
2021/12/29 11:14:42;;;;;;;44.72;23.88;;;6.10;99.90;;;;;;5062162;28;20289;-65
2021/12/29 11:17:14;;;;;;;44.80;25.13;;;6.10;99.90;;;;;;5062936;28;20311;-64
2021/12/29 11:19:50;;;;;;;53.80;27.00;;;6.10;99.90;;;;;;5061913;28;20201;-64
2021/12/29 11:22:19;;;;;;;49.17;26.17;;;6.00;99.90;;;;;;5061915;28;20212;-66
2021/12/29 11:24:55;;;;;;;50.17;25.17;;;6.00;99.90;;;;;;5059444;28;20334;-65
2021/12/29 11:27:24;;;;;;;41.45;24.00;;;6.00;99.90;;;;;;5063856;28;20204;-64
2021/12/29 11:29:56;;;;;;;48.05;25.10;;;6.10;99.90;;;;;;5063856;28;20201;-65
2021/12/29 11:32:27;;;;;;;53.92;28.52;;;6.10;99.90;;;;;;5064968;28;20442;-69
2021/12/29 11:35:13;;;;;;;35.55;20.58;;;6.20;99.90;;;;;;5065086;28;20230;-64
2021/12/29 11:37:44;;;;;;;45.28;24.33;;;6.20;99.90;;;;;;5066549;28;20188;-65
2021/12/29 11:40:13;;;;;;;45.58;23.50;;;6.30;99.90;;;;;;5066686;28;20783;-70
2021/12/29 11:42:48;;;;;;;52.00;27.80;;;6.30;99.90;;;;;;5062815;28;20219;-68
2021/12/29 11:45:16;;;;;;;40.65;23.38;;;6.30;99.90;;;;;;5062855;28;20225;-65
2021/12/29 11:47:45;;;;;;;45.03;23.02;;;6.30;99.90;;;;;;5063782;28;20863;-65
2021/12/29 11:50:20;;;;;;;49.63;25.85;;;6.40;99.90;;;;;;5064934;28;20208;-66
2021/12/29 11:52:59;;;;;;;47.10;24.88;;;6.40;99.90;;;;;;5065364;28;20402;-66
2021/12/29 11:55:31;;;;;;;44.55;22.40;;;6.40;99.90;;;;;;5066603;28;20212;-66
2021/12/29 11:58:11;;;;;;;47.63;22.05;;;6.50;99.90;;;;;;5065639;28;20649;-66
2021/12/29 12:00:39;;;;;;;45.08;23.65;;;6.50;99.90;;;;;;5067295;28;20254;-67
2021/12/29 12:03:11;;;;;;;48.35;24.33;;;6.50;99.90;;;;;;5066544;28;20473;-66
2021/12/29 12:05:41;;;;;;;46.78;23.95;;;6.50;99.90;;;;;;5065607;28;20220;-67
2021/12/29 12:08:12;;;;;;;40.13;22.48;;;6.50;99.90;;;;;;5070706;28;20205;-66
2021/12/29 12:10:41;;;;;;;42.60;21.98;;;6.40;99.90;;;;;;5064406;28;20196;-66
2021/12/29 12:13:24;;;;;;;43.92;24.17;;;6.40;99.90;;;;;;5064592;28;20232;-65
2021/12/29 12:16:04;;;;;;;41.03;24.27;;;6.50;99.90;;;;;;5064971;28;20555;-66
2021/12/29 12:18:47;;;;;;;36.22;19.75;;;6.50;99.90;;;;;;5066056;28;20216;-66
2021/12/29 12:21:29;;;;;;;44.90;23.38;;;6.50;99.90;;;;;;5066366;28;20949;-67
2021/12/29 12:24:11;;;;;;;44.85;23.40;;;6.50;99.90;;;;;;5066195;28;20252;-66
2021/12/29 12:26:54;;;;;;;46.47;23.95;;;6.50;99.90;;;;;;5067136;28;20232;-67
2021/12/29 12:29:24;;;;;;;41.65;23.75;;;6.50;99.90;;;;;;5067021;28;20533;-67
2021/12/29 12:32:13;;;;;;;42.25;23.42;;;6.50;99.90;;;;;;5065139;28;20213;-67
2021/12/29 12:34:51;;;;;;;37.03;22.13;;;6.50;99.90;;;;;;5065160;28;20225;-66
2021/12/29 12:37:22;;;;;;;47.33;24.55;;;6.40;99.90;;;;;;5063062;28;20644;-66
2021/12/29 12:39:58;;;;;;;42.83;24.48;;;6.40;99.90;;;;;;5064515;28;20197;-66
2021/12/29 12:42:29;;;;;;;47.05;23.77;;;6.40;99.90;;;;;;5065732;28;20197;-66
2021/12/29 12:44:59;;;;;;;47.85;25.70;;;6.40;99.90;;;;;;5063890;28;20184;-64
2021/12/29 12:47:30;;;;;;;50.90;25.05;;;6.40;99.90;;;;;;5062843;28;20193;-66
2021/12/29 12:50:01;;;;;;;41.13;21.33;;;6.30;99.90;;;;;;5062443;28;20201;-65